Florahome, FL (32140)

11:00 PM EST on February 07, 2016 (GMT -0500)
PCEM Q.I. Roberts WeatherSTEM | | Change Station
CLOSE
Current Station
Personal Weather Station
Location: Florahome, FL
Elevation: 164 ft
Nearby Weather Stations

Elev 164 ft 29.72 °N, 81.85 °W | Updated 7 minutes ago

Clear
Clear
38.5 °F
Feels Like 38 °F
N
1.0
Wind Variable Wind from WSW
Gusts 3.0 mph

Today
High -- | Low -- °F
--% Chance of Precip.
Yesterday
High -- | Low -- °F
Precip. -- in
Pressure 30.09 in
Visibility 10.0 miles
Clouds Clear
Windchill 38 °F
Dew Point 33 °F
Humidity 80%
Rainfall 0.15 in
Snow Depth Not available.
7:13 AM 6:09 PM
Waning Crescent, 0% visible
METAR K42J 080355Z AUTO 00000KT 10SM CLR 04/M01 A3009 RMK AO1 TSNO
Pressure 30.09 in
Visibility 10.0 miles
Clouds Clear
Windchill 38 °F
Dew Point 33 °F
Humidity 80%
Rainfall 0.15 in
Snow Depth Not available.
7:13 AM 6:09 PM
Waning Crescent, 0% visible
METAR K42J 080355Z AUTO 00000KT 10SM CLR 04/M01 A3009 RMK AO1 TSNO

10-Day Weather Forecast

Almanac

Astronomy

Feb. 07, 2016 Rise Set
Actual Time
Civil Twilight
Nautical Twilight
Astronomical Twilight
Moon
Length of Visible Light
Length of Day
Tomorrow will be .
, % of the Moon is Illuminated

Today's Extremes

State Highs State Lows

Community

WunderPhotos

Upload Photos

1,891,373 photos uploaded!

WunderBlog® & News

Nearby

Air Quality

  Air Quality AQ Index Pollutant
Not available.

Snow Depth

Station Depth Elevation

Earthquake Activity

City Distance Mag. Time & Date
Minimum magnitude displayed is 2.5.

Coastal Water Temperatures

Place Temperature

Stations

Nearby Weather Stations

Station Location Temp. Windchill Dew Point Humidity Wind Precip. Elev Updated Type
                   

Watches & Warnings

There are currently no watches in effect.